createdAt,value
2019-01-11T00:00:09.133Z,5.00
2019-01-11T00:00:45.825Z,6.35
2019-01-11T00:01:24.340Z,5.10
2019-01-11T00:01:57.925Z,5.10
2019-01-11T00:02:31.488Z,5.75
2019-01-11T00:03:05.141Z,5.28
2019-01-11T00:03:38.647Z,6.75
2019-01-11T00:04:12.184Z,5.37
2019-01-11T00:04:45.837Z,5.72
2019-01-11T00:05:19.408Z,5.72
2019-01-11T00:05:52.901Z,6.00
2019-01-11T00:06:26.720Z,5.65
2019-01-11T00:07:00.520Z,5.72
2019-01-11T00:07:34.273Z,5.25
2019-01-11T00:08:08.030Z,5.17
2019-01-11T00:08:41.500Z,5.12
2019-01-11T00:09:15.785Z,4.80
2019-01-11T00:09:49.442Z,5.55
2019-01-11T00:10:23.109Z,6.35
2019-01-11T00:10:56.864Z,4.97
2019-01-11T00:11:30.363Z,5.62
2019-01-11T00:12:04.235Z,5.28
2019-01-11T00:12:37.786Z,5.05
2019-01-11T00:13:11.383Z,5.30
2019-01-11T00:13:44.927Z,5.33
2019-01-11T00:14:18.490Z,6.00
2019-01-11T00:14:52.041Z,6.78
2019-01-11T00:15:25.655Z,10.28
2019-01-11T00:15:59.114Z,6.80
2019-01-11T00:16:32.672Z,7.40
2019-01-11T00:17:06.137Z,7.15
2019-01-11T00:17:39.569Z,6.75
2019-01-11T00:18:13.055Z,6.40
2019-01-11T00:18:46.547Z,6.75
2019-01-11T00:19:20.057Z,6.60
2019-01-11T00:19:53.614Z,6.58
2019-01-11T00:20:27.201Z,7.78
2019-01-11T00:21:00.663Z,6.12
2019-01-11T00:21:34.303Z,6.58
2019-01-11T00:22:07.961Z,6.08
2019-01-11T00:22:41.526Z,6.40
2019-01-11T00:23:15.032Z,5.65
2019-01-11T00:23:48.606Z,6.10
2019-01-11T00:24:22.206Z,6.45
2019-01-11T00:24:55.773Z,6.60
2019-01-11T00:25:29.301Z,6.50
2019-01-11T00:26:02.829Z,6.60
2019-01-11T00:26:36.360Z,6.30
2019-01-11T00:27:09.875Z,7.00
2019-01-11T00:27:43.514Z,6.58
2019-01-11T00:28:17.009Z,7.12
2019-01-11T00:28:50.554Z,6.70
2019-01-11T00:29:24.097Z,7.42
2019-01-11T00:29:57.867Z,6.55
2019-01-11T00:30:31.339Z,6.87
2019-01-11T00:31:04.891Z,6.60
2019-01-11T00:31:38.495Z,7.22
2019-01-11T00:32:12.107Z,7.60
2019-01-11T00:32:45.586Z,7.05
2019-01-11T00:33:19.009Z,6.92
2019-01-11T00:33:52.495Z,6.85
2019-01-11T00:34:26.017Z,6.92
2019-01-11T00:34:59.520Z,6.47
2019-01-11T00:35:33.113Z,7.35
2019-01-11T00:36:06.623Z,7.10
2019-01-11T00:36:40.109Z,8.08
2019-01-11T00:37:13.596Z,7.45
2019-01-11T00:37:47.226Z,7.40
2019-01-11T00:38:20.808Z,8.35
2019-01-11T00:38:54.346Z,7.47
2019-01-11T00:39:27.759Z,7.50
2019-01-11T00:40:01.279Z,6.30
2019-01-11T00:40:34.796Z,7.70
2019-01-11T00:41:08.338Z,8.35
2019-01-11T00:41:41.914Z,7.50
2019-01-11T00:42:15.461Z,7.17
2019-01-11T00:42:49.047Z,7.58
2019-01-11T00:43:22.537Z,7.28
2019-01-11T00:43:56.116Z,7.92
2019-01-11T00:44:29.593Z,7.50
2019-01-11T00:45:03.235Z,7.47
2019-01-11T00:45:36.796Z,8.30
2019-01-11T00:46:10.367Z,8.40
2019-01-11T00:46:43.937Z,7.08
2019-01-11T00:47:17.506Z,8.65
2019-01-11T00:47:51.003Z,7.62
2019-01-11T00:48:24.521Z,8.60
2019-01-11T00:48:58.133Z,8.00
2019-01-11T00:49:32.021Z,7.53
2019-01-11T00:50:05.659Z,7.92
2019-01-11T00:50:39.179Z,9.00
2019-01-11T00:51:12.697Z,8.68
2019-01-11T00:51:48.213Z,8.00
2019-01-11T00:52:21.793Z,7.83
2019-01-11T00:52:55.453Z,8.25
2019-01-11T00:53:29.009Z,8.08
2019-01-11T00:54:02.511Z,7.03
2019-01-11T00:54:36.133Z,7.83
2019-01-11T00:55:10.173Z,8.75
2019-01-11T00:55:43.786Z,8.30
2019-01-11T00:56:17.421Z,7.87
2019-01-11T00:56:51.413Z,8.43
2019-01-11T00:57:25.001Z,7.25
2019-01-11T00:57:58.578Z,8.53
2019-01-11T00:58:32.156Z,8.85
2019-01-11T00:59:05.701Z,8.85
2019-01-11T00:59:39.870Z,8.40
2019-01-11T01:00:15.370Z,8.60
2019-01-11T01:00:49.035Z,8.08
2019-01-11T01:01:22.669Z,8.30
2019-01-11T01:01:56.665Z,8.35
2019-01-11T01:02:30.262Z,7.70
2019-01-11T01:03:04.163Z,8.75
2019-01-11T01:03:37.985Z,8.28
2019-01-11T01:04:11.534Z,8.08
2019-01-11T01:04:45.193Z,8.83
2019-01-11T01:05:19.064Z,9.08
2019-01-11T01:05:52.607Z,8.70
2019-01-11T01:06:26.166Z,8.43
2019-01-11T01:06:59.812Z,8.48
2019-01-11T01:07:33.516Z,8.50
2019-01-11T01:08:07.126Z,9.98
2019-01-11T01:08:40.801Z,8.98
2019-01-11T01:09:14.510Z,8.95
2019-01-11T01:09:48.360Z,9.78
2019-01-11T01:10:22.774Z,8.93
2019-01-11T01:10:56.384Z,10.32
2019-01-11T01:11:29.945Z,8.85
2019-01-11T01:12:03.901Z,8.83
2019-01-11T01:12:37.422Z,8.88
2019-01-11T01:13:10.937Z,8.68
2019-01-11T01:13:44.439Z,9.53
2019-01-11T01:14:17.972Z,9.80
2019-01-11T01:14:51.579Z,10.35
2019-01-11T01:15:25.061Z,10.03
2019-01-11T01:15:58.568Z,9.25
2019-01-11T01:16:32.160Z,10.13
2019-01-11T01:17:05.914Z,9.38
2019-01-11T01:17:39.794Z,9.20
2019-01-11T01:18:13.563Z,9.58
2019-01-11T01:18:47.158Z,9.63
2019-01-11T01:19:20.705Z,10.58
2019-01-11T01:19:54.232Z,9.40
2019-01-11T01:20:27.707Z,9.90
2019-01-11T01:21:01.211Z,10.13
2019-01-11T01:21:34.677Z,10.13
2019-01-11T01:22:08.306Z,9.83
2019-01-11T01:22:41.908Z,10.05
2019-01-11T01:23:15.618Z,10.20
2019-01-11T01:23:49.179Z,10.32
2019-01-11T01:24:22.704Z,10.32
2019-01-11T01:24:56.307Z,10.82
2019-01-11T01:25:29.896Z,10.55
2019-01-11T01:26:03.982Z,9.80
2019-01-11T01:26:37.518Z,10.60
2019-01-11T01:27:11.094Z,9.65
2019-01-11T01:27:47.098Z,10.58
2019-01-11T01:28:20.786Z,10.25
2019-01-11T01:28:54.355Z,10.05
2019-01-11T01:29:27.913Z,10.00
2019-01-11T01:30:01.360Z,10.38
2019-01-11T01:30:35.160Z,10.35
2019-01-11T01:31:08.729Z,11.15
2019-01-11T01:31:42.672Z,10.28
2019-01-11T01:32:16.243Z,11.45
2019-01-11T01:32:49.781Z,9.80
2019-01-11T01:33:23.287Z,10.45
2019-01-11T01:33:56.782Z,10.70
2019-01-11T01:34:30.324Z,10.80
2019-01-11T01:35:04.124Z,10.18
2019-01-11T01:35:39.651Z,10.80
2019-01-11T01:36:13.842Z,10.35
2019-01-11T01:36:47.498Z,10.63
2019-01-11T01:37:22.030Z,10.95
2019-01-11T01:37:55.550Z,10.28
2019-01-11T01:38:29.493Z,11.05
2019-01-11T01:39:03.956Z,11.12
2019-01-11T01:39:37.519Z,10.55
2019-01-11T01:40:11.556Z,11.65
2019-01-11T01:40:45.608Z,10.53
2019-01-11T01:41:19.257Z,11.70
2019-01-11T01:41:52.754Z,11.83
2019-01-11T01:42:26.275Z,11.00
2019-01-11T01:43:00.948Z,11.45
2019-01-11T01:43:34.740Z,11.38
2019-01-11T01:44:08.268Z,11.25
2019-01-11T01:44:41.776Z,10.58
2019-01-11T01:45:16.115Z,12.13
2019-01-11T01:45:49.657Z,12.30
2019-01-11T01:46:23.100Z,12.25
2019-01-11T01:46:56.702Z,11.53
2019-01-11T01:47:30.304Z,11.35
2019-01-11T01:48:04.607Z,11.48
2019-01-11T01:48:38.213Z,11.55
2019-01-11T01:49:11.996Z,10.95
2019-01-11T01:49:47.182Z,12.13
2019-01-11T01:50:20.798Z,12.53
2019-01-11T01:50:54.254Z,11.80
2019-01-11T01:51:27.838Z,12.23
2019-01-11T01:52:01.363Z,12.50
2019-01-11T01:52:34.953Z,12.18
2019-01-11T01:53:08.997Z,12.85
2019-01-11T01:53:42.483Z,13.32
2019-01-11T01:54:16.083Z,11.60
2019-01-11T01:54:50.997Z,12.47
2019-01-11T01:55:24.816Z,12.13
2019-01-11T01:55:58.337Z,12.37
2019-01-11T01:56:33.180Z,12.33
2019-01-11T01:57:06.792Z,13.40
2019-01-11T01:57:40.362Z,13.08
2019-01-11T01:58:16.920Z,12.60
2019-01-11T01:58:50.510Z,12.40
2019-01-11T01:59:24.140Z,12.30
2019-01-11T02:00:00.515Z,14.50
2019-01-11T02:00:34.255Z,12.88
2019-01-11T02:01:12.737Z,13.40
2019-01-11T02:01:49.436Z,13.40
2019-01-11T02:02:23.237Z,13.15
2019-01-11T02:02:56.793Z,12.33
2019-01-11T02:03:30.308Z,13.93
2019-01-11T02:04:14.084Z,14.13
2019-01-11T02:04:40.754Z,13.48
2019-01-11T02:05:14.901Z,12.25
2019-01-11T02:05:48.682Z,13.22
2019-01-11T02:06:22.193Z,13.35
2019-01-11T02:06:55.856Z,13.20
2019-01-11T02:07:29.350Z,14.58
2019-01-11T02:08:02.981Z,13.10
2019-01-11T02:08:36.732Z,13.80
2019-01-11T02:09:26.812Z,14.15
2019-01-11T02:10:05.090Z,12.68
2019-01-11T02:10:38.632Z,13.85
2019-01-11T02:11:14.253Z,14.23
2019-01-11T02:11:48.284Z,13.03
2019-01-11T02:12:21.819Z,14.05
2019-01-11T02:13:05.260Z,14.20
2019-01-11T02:13:38.531Z,13.13
2019-01-11T02:14:13.641Z,13.93
2019-01-11T02:14:51.050Z,13.62
2019-01-11T02:15:24.598Z,13.28
2019-01-11T02:16:02.625Z,14.45
2019-01-11T02:16:36.179Z,14.13
2019-01-11T02:17:10.607Z,14.68
2019-01-11T02:17:44.406Z,13.72
2019-01-11T02:18:18.349Z,15.63
2019-01-11T02:19:00.824Z,14.35
2019-01-11T02:19:34.932Z,14.63
2019-01-11T02:20:14.987Z,13.95
2019-01-11T02:20:48.988Z,14.23
2019-01-11T02:21:22.542Z,15.15
2019-01-11T02:21:56.359Z,14.90
2019-01-11T02:22:31.828Z,14.10
2019-01-11T02:23:15.435Z,14.23
2019-01-11T02:23:57.121Z,14.05
2019-01-11T02:24:31.681Z,14.75
2019-01-11T02:25:18.027Z,14.55
2019-01-11T02:25:58.400Z,14.33
2019-01-11T02:26:31.952Z,14.38
2019-01-11T02:27:06.024Z,15.50
2019-01-11T02:27:43.819Z,14.30
2019-01-11T02:28:17.315Z,15.85
2019-01-11T02:28:50.918Z,15.08
2019-01-11T02:29:31.760Z,14.28
2019-01-11T02:30:14.620Z,14.83
2019-01-11T02:31:00.631Z,15.03
2019-01-11T02:31:34.286Z,15.25
2019-01-11T02:32:07.860Z,15.43
2019-01-11T02:32:41.451Z,14.85
2019-01-11T02:33:14.929Z,16.82
2019-01-11T02:33:48.477Z,14.68
2019-01-11T02:34:21.975Z,14.45
2019-01-11T02:34:56.732Z,14.30
2019-01-11T02:35:30.518Z,15.58
2019-01-11T02:36:09.952Z,14.83
2019-01-11T02:36:45.190Z,14.13
2019-01-11T02:37:21.952Z,14.60
2019-01-11T02:38:01.391Z,14.80
2019-01-11T02:38:35.116Z,14.75
2019-01-11T02:39:08.605Z,14.65
2019-01-11T02:39:47.375Z,15.45
2019-01-11T02:40:21.000Z,14.40
2019-01-11T02:41:00.209Z,15.53
2019-01-11T02:41:35.508Z,14.35
2019-01-11T02:42:15.158Z,15.32
2019-01-11T02:42:49.748Z,15.35
2019-01-11T02:43:23.629Z,15.20
2019-01-11T02:44:00.285Z,14.73
2019-01-11T02:44:33.806Z,13.80
2019-01-11T02:45:08.041Z,14.98
2019-01-11T02:45:41.613Z,15.72
2019-01-11T02:46:15.230Z,14.93
2019-01-11T02:46:51.156Z,16.27
2019-01-11T02:47:27.558Z,14.90
2019-01-11T02:48:03.099Z,15.08
2019-01-11T02:48:38.855Z,14.50
2019-01-11T02:49:14.117Z,15.98
2019-01-11T02:49:50.285Z,15.38
2019-01-11T02:50:23.853Z,17.25
2019-01-11T02:50:57.338Z,16.23
2019-01-11T02:51:31.023Z,16.23
2019-01-11T02:52:04.582Z,14.45
2019-01-11T02:52:38.104Z,13.98
2019-01-11T02:53:11.724Z,16.52
2019-01-11T02:53:45.279Z,16.05
2019-01-11T02:54:18.829Z,15.95
2019-01-11T02:54:52.331Z,16.10
2019-01-11T02:55:25.881Z,15.70
2019-01-11T02:55:59.398Z,15.03
2019-01-11T02:56:32.903Z,16.17
2019-01-11T02:57:06.493Z,16.23
2019-01-11T02:57:40.035Z,16.00
2019-01-11T02:58:13.462Z,16.75
2019-01-11T02:58:46.948Z,16.02
2019-01-11T02:59:20.479Z,15.13
2019-01-11T02:59:53.971Z,16.40
2019-01-11T03:00:27.495Z,16.12
2019-01-11T03:01:01.088Z,16.52
2019-01-11T03:01:34.544Z,15.93
2019-01-11T03:02:08.055Z,16.73
2019-01-11T03:02:41.621Z,15.93
2019-01-11T03:03:15.093Z,16.15
2019-01-11T03:03:48.750Z,15.88
2019-01-11T03:04:22.215Z,16.37
2019-01-11T03:04:55.793Z,17.30
2019-01-11T03:05:29.568Z,17.55
2019-01-11T03:06:03.140Z,17.17
2019-01-11T03:06:36.732Z,17.25
2019-01-11T03:07:10.340Z,16.02
2019-01-11T03:07:43.880Z,15.80
2019-01-11T03:08:17.656Z,15.80
2019-01-11T03:08:51.168Z,15.80
2019-01-11T03:09:24.827Z,16.42
2019-01-11T03:09:58.335Z,15.78
2019-01-11T03:10:31.885Z,16.30
2019-01-11T03:11:05.381Z,17.10
2019-01-11T03:11:38.969Z,16.65
2019-01-11T03:12:12.454Z,16.42
2019-01-11T03:12:45.982Z,15.72
2019-01-11T03:13:19.552Z,16.07
2019-01-11T03:13:53.120Z,17.07
2019-01-11T03:14:26.521Z,17.90
2019-01-11T03:15:00.096Z,17.00
2019-01-11T03:15:33.713Z,16.23
2019-01-11T03:16:07.257Z,16.25
2019-01-11T03:16:40.795Z,15.55
2019-01-11T03:17:14.285Z,17.85
2019-01-11T03:17:47.800Z,15.75
2019-01-11T03:18:21.423Z,16.90
2019-01-11T03:18:55.023Z,15.25
2019-01-11T03:19:28.526Z,15.85
2019-01-11T03:20:02.038Z,17.90
2019-01-11T03:20:35.473Z,16.95
2019-01-11T03:21:08.992Z,17.70
2019-01-11T03:21:42.681Z,16.30
2019-01-11T03:22:16.217Z,17.75
2019-01-11T03:22:49.799Z,16.07
2019-01-11T03:23:23.389Z,17.12
2019-01-11T03:23:58.579Z,16.35
2019-01-11T03:24:32.224Z,16.57
2019-01-11T03:25:06.066Z,17.20
2019-01-11T03:25:39.623Z,17.35
2019-01-11T03:26:13.523Z,18.10
2019-01-11T03:26:47.025Z,16.52
2019-01-11T03:27:20.625Z,16.75
2019-01-11T03:27:54.178Z,16.85
2019-01-11T03:28:27.666Z,16.97
2019-01-11T03:29:01.228Z,16.35
2019-01-11T03:29:34.780Z,17.15
2019-01-11T03:30:10.154Z,17.35
2019-01-11T03:30:43.702Z,16.50
2019-01-11T03:31:27.085Z,17.70
2019-01-11T03:32:00.562Z,16.95
2019-01-11T03:32:34.100Z,16.67
2019-01-11T03:33:07.642Z,18.02
2019-01-11T03:33:41.219Z,18.67
2019-01-11T03:34:14.685Z,17.67
2019-01-11T03:35:05.959Z,18.60
2019-01-11T03:35:39.530Z,17.10
2019-01-11T03:36:13.017Z,17.40
2019-01-11T03:36:46.676Z,18.23
2019-01-11T03:37:20.182Z,17.48
2019-01-11T03:37:53.737Z,18.32
2019-01-11T03:38:27.240Z,19.27
2019-01-11T03:39:00.742Z,20.25
2019-01-11T03:39:34.236Z,17.48
2019-01-11T03:40:09.014Z,18.50
2019-01-11T03:40:42.519Z,19.42
2019-01-11T03:41:16.107Z,17.67
2019-01-11T03:41:58.417Z,18.30
2019-01-11T03:42:32.017Z,18.48
2019-01-11T03:43:06.138Z,17.98
2019-01-11T03:43:39.742Z,17.55
2019-01-11T03:44:13.251Z,19.70
2019-01-11T03:44:46.846Z,19.95
2019-01-11T03:45:21.244Z,18.82
2019-01-11T03:45:54.890Z,18.75
2019-01-11T03:46:28.492Z,19.57
2019-01-11T03:47:02.019Z,17.67
2019-01-11T03:47:35.601Z,20.12
2019-01-11T03:48:09.279Z,18.92
2019-01-11T03:48:42.747Z,20.80
2019-01-11T03:49:16.473Z,19.70
2019-01-11T03:49:54.812Z,17.50
2019-01-11T03:50:25.182Z,21.05
2019-01-11T03:50:58.711Z,19.65
2019-01-11T03:51:32.317Z,20.12
2019-01-11T03:52:06.206Z,19.05
2019-01-11T03:52:39.741Z,21.42
2019-01-11T03:53:13.225Z,19.35
2019-01-11T03:53:46.790Z,19.23
2019-01-11T03:54:20.314Z,21.25
2019-01-11T03:54:53.962Z,19.67
2019-01-11T03:55:27.528Z,18.65
2019-01-11T03:56:01.094Z,19.70
2019-01-11T03:56:34.703Z,20.60
2019-01-11T03:57:08.248Z,21.50
2019-01-11T03:57:41.901Z,19.23
2019-01-11T03:58:15.364Z,19.42
2019-01-11T03:58:48.900Z,20.40
2019-01-11T03:59:22.406Z,20.50
2019-01-11T03:59:55.890Z,21.25
2019-01-11T04:00:29.427Z,21.15
2019-01-11T04:01:02.914Z,21.40
2019-01-11T04:01:36.414Z,19.02
2019-01-11T04:02:09.965Z,21.15
2019-01-11T04:02:43.777Z,19.48
2019-01-11T04:03:17.279Z,21.37
2019-01-11T04:03:50.776Z,20.27
2019-01-11T04:04:24.357Z,22.95
2019-01-11T04:04:57.845Z,20.37
2019-01-11T04:05:31.358Z,20.70
2019-01-11T04:06:04.948Z,20.88
2019-01-11T04:06:38.525Z,20.97
2019-01-11T04:07:12.170Z,20.95
2019-01-11T04:07:45.674Z,20.70
2019-01-11T04:08:19.233Z,20.15
2019-01-11T04:08:52.736Z,20.72
2019-01-11T04:09:26.210Z,19.70
2019-01-11T04:09:59.919Z,19.23
2019-01-11T04:10:33.413Z,21.05
2019-01-11T04:11:06.979Z,20.60
2019-01-11T04:11:40.414Z,19.85
2019-01-11T04:12:13.971Z,22.15
2019-01-11T04:12:47.572Z,20.80
2019-01-11T04:13:21.058Z,20.77
2019-01-11T04:13:54.743Z,20.90
2019-01-11T04:14:28.263Z,18.98
2019-01-11T04:15:01.847Z,20.60
2019-01-11T04:15:35.509Z,18.80
2019-01-11T04:16:09.060Z,19.00
2019-01-11T04:16:42.606Z,18.70
2019-01-11T04:17:16.109Z,19.10
2019-01-11T04:18:07.817Z,21.02
2019-01-11T04:18:55.889Z,20.35
2019-01-11T04:19:29.545Z,18.70
2019-01-11T04:20:03.437Z,19.73
2019-01-11T04:20:37.029Z,20.32
2019-01-11T04:21:10.624Z,18.50
2019-01-11T04:22:18.661Z,20.05
2019-01-11T04:22:54.736Z,18.60
2019-01-11T04:23:28.516Z,18.48
2019-01-11T04:24:02.089Z,20.48
2019-01-11T04:24:49.552Z,21.70
2019-01-11T04:25:25.372Z,19.20
2019-01-11T04:25:58.912Z,19.85
2019-01-11T04:26:32.552Z,20.55
2019-01-11T04:27:06.186Z,19.27
2019-01-11T04:27:39.783Z,21.00
2019-01-11T04:28:13.361Z,20.08
2019-01-11T04:28:46.759Z,20.27
2019-01-11T04:29:20.267Z,19.25
2019-01-11T04:29:54.030Z,20.23
2019-01-11T04:30:27.421Z,19.25
2019-01-11T04:31:00.966Z,19.98
2019-01-11T04:31:34.498Z,19.75
2019-01-11T04:32:08.081Z,19.25
2019-01-11T04:32:41.653Z,19.30
2019-01-11T04:33:15.252Z,19.62
2019-01-11T04:33:48.772Z,19.20
2019-01-11T04:34:22.348Z,20.20
2019-01-11T04:34:55.891Z,17.73
2019-01-11T04:35:29.328Z,18.82
2019-01-11T04:36:02.746Z,19.30
2019-01-11T04:36:36.296Z,18.90
2019-01-11T04:37:09.857Z,18.37
2019-01-11T04:37:43.448Z,18.60
2019-01-11T04:38:17.026Z,19.25
2019-01-11T04:38:50.727Z,19.30
2019-01-11T04:39:24.366Z,18.82
2019-01-11T04:39:58.306Z,19.85
2019-01-11T04:40:34.389Z,19.10
2019-01-11T04:41:07.148Z,19.85
2019-01-11T04:41:40.711Z,17.30
2019-01-11T04:42:14.318Z,18.10
2019-01-11T04:42:47.910Z,18.75
2019-01-11T04:43:21.455Z,16.67
2019-01-11T04:43:55.223Z,18.00
2019-01-11T04:44:28.832Z,19.98
2019-01-11T04:45:02.397Z,17.35
2019-01-11T04:45:36.792Z,19.10
2019-01-11T04:46:10.508Z,18.37
2019-01-11T04:46:44.610Z,17.67
2019-01-11T04:47:19.005Z,16.80
2019-01-11T04:47:53.098Z,19.20
2019-01-11T04:48:26.689Z,17.42
2019-01-11T04:49:00.216Z,17.35
2019-01-11T04:49:33.726Z,17.45
2019-01-11T04:50:09.429Z,19.02
2019-01-11T04:50:43.493Z,17.80
2019-01-11T04:51:17.167Z,16.57
2019-01-11T04:51:50.732Z,18.07
2019-01-11T04:52:24.364Z,17.77
2019-01-11T04:53:01.957Z,17.73
2019-01-11T04:53:35.638Z,17.67
2019-01-11T04:54:09.898Z,17.70
2019-01-11T04:54:43.410Z,18.80
2019-01-11T04:55:17.031Z,18.25
2019-01-11T04:55:50.667Z,18.37
2019-01-11T04:56:24.709Z,18.10
2019-01-11T04:56:59.674Z,16.97
2019-01-11T04:57:36.170Z,18.50
2019-01-11T04:58:09.755Z,18.48
2019-01-11T04:58:43.346Z,18.05
2019-01-11T04:59:16.979Z,17.48
2019-01-11T04:59:50.791Z,16.20
2019-01-11T05:00:24.348Z,17.80
2019-01-11T05:00:57.936Z,18.05
2019-01-11T05:01:31.403Z,18.40
2019-01-11T05:02:05.026Z,17.98
2019-01-11T05:02:38.567Z,18.70
2019-01-11T05:03:12.499Z,18.15
2019-01-11T05:03:46.112Z,19.17
2019-01-11T05:04:19.729Z,18.65
2019-01-11T05:04:53.207Z,17.60
2019-01-11T05:05:26.792Z,18.55
2019-01-11T05:06:00.400Z,17.62
2019-01-11T05:06:34.049Z,19.32
2019-01-11T05:07:08.006Z,18.10
2019-01-11T05:07:41.568Z,17.45
2019-01-11T05:08:15.188Z,18.42
2019-01-11T05:08:48.621Z,17.52
2019-01-11T05:09:22.144Z,18.82
2019-01-11T05:09:55.665Z,17.60
2019-01-11T05:10:29.346Z,18.62
2019-01-11T05:11:02.903Z,18.48
2019-01-11T05:11:36.530Z,17.00
2019-01-11T05:12:10.353Z,19.23
2019-01-11T05:12:43.823Z,17.92
2019-01-11T05:13:35.390Z,17.30
2019-01-11T05:14:08.806Z,16.65
2019-01-11T05:14:42.389Z,17.17
2019-01-11T05:15:15.917Z,18.48
2019-01-11T05:15:49.530Z,19.07
2019-01-11T05:16:23.117Z,18.07
2019-01-11T05:16:56.710Z,17.48
2019-01-11T05:17:30.163Z,18.55
2019-01-11T05:18:03.703Z,18.25
2019-01-11T05:18:37.246Z,19.57
2019-01-11T05:19:10.753Z,18.65
2019-01-11T05:19:44.296Z,18.67
2019-01-11T05:20:17.797Z,19.62
2019-01-11T05:20:51.395Z,18.07
2019-01-11T05:21:24.900Z,17.62
2019-01-11T05:21:58.484Z,18.60
2019-01-11T05:22:32.111Z,18.10
2019-01-11T05:23:06.261Z,17.70
2019-01-11T05:23:40.718Z,16.57
2019-01-11T05:24:14.276Z,18.10
2019-01-11T05:24:47.890Z,17.52
2019-01-11T05:25:21.441Z,18.62
2019-01-11T05:25:55.513Z,18.37
2019-01-11T05:26:28.960Z,18.80
2019-01-11T05:27:02.686Z,17.07
2019-01-11T05:27:36.209Z,19.17
2019-01-11T05:28:09.787Z,17.98
2019-01-11T05:28:43.377Z,17.07
2019-01-11T05:29:17.138Z,16.67
2019-01-11T05:29:50.664Z,18.23
2019-01-11T05:30:24.166Z,16.17
2019-01-11T05:30:58.772Z,18.67
2019-01-11T05:31:32.308Z,16.93
2019-01-11T05:32:05.927Z,18.35
2019-01-11T05:32:39.509Z,17.45
2019-01-11T05:33:13.082Z,16.60
2019-01-11T05:33:46.629Z,17.35
2019-01-11T05:34:20.456Z,17.30
2019-01-11T05:34:53.865Z,17.25
2019-01-11T05:35:27.442Z,18.48
2019-01-11T05:36:01.072Z,17.75
2019-01-11T05:36:34.643Z,18.30
2019-01-11T05:37:08.092Z,19.35
2019-01-11T05:37:41.794Z,17.92
2019-01-11T05:38:15.503Z,18.05
2019-01-11T05:38:49.040Z,17.92
2019-01-11T05:39:22.617Z,18.75
2019-01-11T05:39:56.256Z,17.48
2019-01-11T05:40:29.812Z,17.07
2019-01-11T05:41:03.321Z,17.07
2019-01-11T05:41:36.939Z,18.20
2019-01-11T05:42:10.614Z,17.32
2019-01-11T05:42:44.264Z,16.62
2019-01-11T05:43:17.922Z,17.15
2019-01-11T05:43:51.480Z,16.95
2019-01-11T05:44:25.145Z,17.20
2019-01-11T05:44:58.726Z,16.57
2019-01-11T05:45:32.347Z,16.75
2019-01-11T05:46:05.977Z,16.67
2019-01-11T05:46:39.520Z,14.63
2019-01-11T05:47:13.064Z,16.07
2019-01-11T05:47:46.991Z,16.80
2019-01-11T05:48:20.621Z,16.23
2019-01-11T05:48:54.162Z,16.10
2019-01-11T05:49:27.923Z,16.02
2019-01-11T05:50:01.650Z,17.50
2019-01-11T05:50:35.231Z,15.15
2019-01-11T05:51:08.858Z,17.02
2019-01-11T05:51:42.484Z,15.10
2019-01-11T05:52:16.478Z,16.75
2019-01-11T05:52:52.351Z,42.75
2019-01-11T05:53:25.904Z,39.50
2019-01-11T05:53:59.466Z,38.60
2019-01-11T05:54:33.148Z,35.60
2019-01-11T05:55:07.630Z,39.90
2019-01-11T05:56:06.675Z,40.70
2019-01-11T05:56:40.286Z,37.60
2019-01-11T05:57:13.899Z,43.85
2019-01-11T05:58:06.555Z,38.58
2019-01-11T05:58:51.310Z,37.95
2019-01-11T05:59:24.872Z,35.38
2019-01-11T05:59:58.305Z,30.05
2019-01-11T06:00:31.945Z,28.12
2019-01-11T06:01:05.623Z,31.97
2019-01-11T06:01:39.238Z,33.30
2019-01-11T06:02:12.806Z,30.82
2019-01-11T06:02:47.035Z,27.80
2019-01-11T06:03:20.698Z,28.15
2019-01-11T06:03:54.369Z,28.80
2019-01-11T06:04:52.990Z,30.50
2019-01-11T06:05:26.604Z,28.12
2019-01-11T06:06:00.237Z,27.62
2019-01-11T06:06:52.977Z,23.90
2019-01-11T06:07:41.060Z,22.58
2019-01-11T06:08:16.619Z,33.60
2019-01-11T06:08:50.291Z,32.28
2019-01-11T06:09:23.868Z,30.15
2019-01-11T06:09:57.394Z,27.48
2019-01-11T06:10:31.974Z,21.68
2019-01-11T06:11:05.870Z,22.65
2019-01-11T06:11:39.701Z,21.30
2019-01-11T06:12:13.211Z,21.35
2019-01-11T06:12:46.764Z,24.65
2019-01-11T06:13:20.327Z,21.02
2019-01-11T06:13:53.901Z,21.12
2019-01-11T06:14:27.521Z,21.48
2019-01-11T06:15:01.111Z,20.97
2019-01-11T06:15:34.660Z,16.80
2019-01-11T06:16:08.488Z,20.70
2019-01-11T06:16:42.073Z,21.20
2019-01-11T06:17:15.864Z,17.57
2019-01-11T06:17:49.459Z,17.35
2019-01-11T06:18:23.196Z,18.73
2019-01-11T06:18:56.778Z,19.07
2019-01-11T06:19:30.388Z,20.40
2019-01-11T06:20:05.410Z,18.00
2019-01-11T06:20:38.937Z,19.67
2019-01-11T06:21:12.619Z,19.50
2019-01-11T06:21:46.230Z,18.82
2019-01-11T06:22:19.964Z,18.45
2019-01-11T06:22:54.039Z,18.70
2019-01-11T06:23:27.588Z,19.00
2019-01-11T06:24:02.621Z,20.12
2019-01-11T06:24:36.197Z,21.17
2019-01-11T06:25:09.666Z,20.50
2019-01-11T06:25:43.333Z,19.90
2019-01-11T06:26:16.840Z,17.45
2019-01-11T06:26:50.300Z,17.75
2019-01-11T06:27:23.811Z,17.57
2019-01-11T06:27:57.303Z,19.10
2019-01-11T06:28:30.886Z,16.32
2019-01-11T06:29:04.473Z,15.43
2019-01-11T06:29:38.072Z,18.20
2019-01-11T06:30:13.227Z,16.30
2019-01-11T06:30:46.911Z,15.13
2019-01-11T06:31:20.433Z,13.93
2019-01-11T06:31:55.288Z,16.20
2019-01-11T06:32:28.790Z,16.95
2019-01-11T06:33:02.482Z,17.35
2019-01-11T06:33:36.021Z,18.25
2019-01-11T06:34:09.537Z,19.42
2019-01-11T06:34:43.213Z,17.07
2019-01-11T06:35:16.821Z,16.77
2019-01-11T06:35:51.068Z,15.30
2019-01-11T06:36:24.680Z,16.25
2019-01-11T06:36:58.289Z,14.33
2019-01-11T06:37:31.904Z,14.53
2019-01-11T06:38:05.497Z,14.28
2019-01-11T06:38:39.166Z,15.15
2019-01-11T06:39:12.817Z,15.23
2019-01-11T06:39:46.380Z,16.23
2019-01-11T06:40:19.921Z,16.85
2019-01-11T06:40:53.509Z,19.32
2019-01-11T06:41:33.544Z,18.30
2019-01-11T06:42:13.858Z,18.45
2019-01-11T06:42:47.408Z,18.87
2019-01-11T06:43:20.978Z,22.77
2019-01-11T06:43:54.959Z,20.65
2019-01-11T06:44:28.912Z,19.25
2019-01-11T06:45:02.696Z,19.73
2019-01-11T06:45:36.556Z,17.40
2019-01-11T06:46:10.293Z,16.93
2019-01-11T06:46:46.195Z,16.37
2019-01-11T06:47:19.809Z,15.50
2019-01-11T06:47:53.423Z,17.10
2019-01-11T06:48:47.011Z,14.85
2019-01-11T06:49:21.509Z,14.53
2019-01-11T06:49:55.114Z,15.03
2019-01-11T06:50:28.728Z,14.43
2019-01-11T06:51:02.760Z,16.52
2019-01-11T06:51:36.460Z,16.48
2019-01-11T06:52:10.106Z,16.17
2019-01-11T06:52:43.659Z,15.32
2019-01-11T06:53:17.144Z,16.77
2019-01-11T06:53:50.668Z,16.57
2019-01-11T06:54:24.251Z,15.83
2019-01-11T06:54:57.851Z,15.68
2019-01-11T06:55:31.453Z,13.90
2019-01-11T06:56:05.346Z,13.75
2019-01-11T06:56:38.877Z,14.10
2019-01-11T06:57:12.468Z,14.80
2019-01-11T06:57:46.311Z,13.30
2019-01-11T06:58:19.885Z,15.35
2019-01-11T06:58:53.568Z,13.88
2019-01-11T06:59:27.078Z,13.95
2019-01-11T07:00:00.586Z,13.60
2019-01-11T07:00:34.190Z,13.28
2019-01-11T07:01:07.682Z,14.68
2019-01-11T07:01:41.524Z,13.38
2019-01-11T07:02:15.088Z,12.90
2019-01-11T07:02:48.606Z,13.72
2019-01-11T07:03:22.105Z,13.85
2019-01-11T07:03:55.717Z,13.03
2019-01-11T07:04:29.503Z,13.70
2019-01-11T07:05:03.101Z,12.63
2019-01-11T07:05:36.612Z,13.18
2019-01-11T07:06:10.173Z,13.22
2019-01-11T07:06:43.712Z,13.75
2019-01-11T07:07:17.224Z,12.78
2019-01-11T07:07:50.730Z,13.25
2019-01-11T07:08:24.282Z,13.75
2019-01-11T07:08:57.863Z,12.70
2019-01-11T07:09:31.422Z,13.83
2019-01-11T07:10:06.130Z,11.73
2019-01-11T07:10:39.656Z,12.98
2019-01-11T07:11:13.130Z,11.57
2019-01-11T07:11:46.633Z,13.13
2019-01-11T07:12:21.329Z,13.08
2019-01-11T07:12:54.819Z,11.73
2019-01-11T07:13:28.337Z,12.40
2019-01-11T07:14:01.932Z,12.73
2019-01-11T07:14:36.325Z,12.65
2019-01-11T07:15:10.167Z,12.55
2019-01-11T07:15:43.749Z,12.95
2019-01-11T07:16:17.330Z,13.58
2019-01-11T07:16:50.793Z,12.05
2019-01-11T07:17:24.381Z,12.20
2019-01-11T07:17:58.099Z,12.65
2019-01-11T07:18:31.826Z,11.28
2019-01-11T07:19:05.339Z,12.07
2019-01-11T07:19:39.136Z,14.93
2019-01-11T07:20:14.441Z,12.05
2019-01-11T07:20:47.945Z,12.53
2019-01-11T07:21:21.543Z,10.63
2019-01-11T07:21:55.141Z,11.55
2019-01-11T07:22:28.804Z,11.45
2019-01-11T07:23:02.412Z,11.00
2019-01-11T07:23:35.943Z,11.75
2019-01-11T07:24:09.567Z,11.48
2019-01-11T07:24:43.070Z,10.95